Time;durP1;ratioP1;P1;durP2;ratioP2;P2;SDS_P1;SDS_P2;PMS_P1;PMS_P2;Temp;Humidity;BMP_temperature;BMP_pressure;BME280_temperature;BME280_humidity;BME280_pressure;Samples;Min_cycle;Max_cycle;Signal;HPM_P1;HPM_P2
2023/04/26 00:02:26;;;;;;;5.40;3.33;;;5.90;99.90;;;;;;5078901;28;20240;-60
2023/04/26 00:04:54;;;;;;;11.17;3.80;;;5.80;1.00;;;;;;5078394;28;20272;-59
2023/04/26 00:07:27;;;;;;;7.10;3.63;;;5.80;1.00;;;;;;5078678;28;20216;-60
2023/04/26 00:09:54;;;;;;;9.53;4.10;;;5.80;1.00;;;;;;5077978;28;20205;-59
2023/04/26 00:12:21;;;;;;;9.37;4.63;;;5.90;1.00;;;;;;5078142;28;20194;-59
2023/04/26 00:14:48;;;;;;;7.83;3.93;;;5.90;1.00;;;;;;5078318;28;20214;-59
2023/04/26 00:17:15;;;;;;;5.73;3.60;;;5.90;1.00;;;;;;5079416;28;20680;-59
2023/04/26 00:19:42;;;;;;;6.17;3.93;;;6.00;1.00;;;;;;5077802;28;20234;-60
2023/04/26 00:22:09;;;;;;;8.00;4.20;;;6.00;1.00;;;;;;5078429;28;20302;-60
2023/04/26 00:24:36;;;;;;;13.03;4.27;;;6.00;99.90;;;;;;5078077;28;20226;-60
2023/04/26 00:27:09;;;;;;;6.53;4.20;;;5.70;1.00;;;;;;5077787;28;20223;-60
2023/04/26 00:29:36;;;;;;;8.00;3.70;;;5.50;1.00;;;;;;5075553;28;20218;-59
2023/04/26 00:32:03;;;;;;;8.87;3.70;;;5.50;1.00;;;;;;5080668;28;20237;-62
2023/04/26 00:34:35;;;;;;;11.33;4.20;;;5.60;99.90;;;;;;5063849;28;20206;-59
2023/04/26 00:37:03;;;;;;;9.43;4.03;;;5.70;1.00;;;;;;5082311;28;20294;-59
2023/04/26 00:39:30;;;;;;;6.10;4.10;;;5.70;1.00;;;;;;5063985;28;20216;-59
2023/04/26 00:41:57;;;;;;;6.53;4.03;;;5.60;99.90;;;;;;5064223;28;20333;-59
2023/04/26 00:44:24;;;;;;;7.03;3.97;;;5.40;1.00;;;;;;5081070;28;20239;-60
2023/04/26 00:46:52;;;;;;;6.10;3.60;;;5.30;1.00;;;;;;5078042;28;20269;-60
2023/04/26 00:49:23;;;;;;;8.13;4.33;;;5.20;1.00;;;;;;5082798;28;21093;-59
2023/04/26 00:51:51;;;;;;;11.77;4.10;;;5.40;1.00;;;;;;5081861;28;20301;-59
2023/04/26 00:54:20;;;;;;;8.63;4.00;;;5.60;1.00;;;;;;5081168;28;20366;-59
2023/04/26 00:56:50;;;;;;;6.97;4.37;;;5.60;28.60;;;;;;5082551;28;20208;-60
2023/04/26 00:59:19;;;;;;;11.50;4.83;;;5.60;1.00;;;;;;5070633;28;20213;-59
2023/04/26 01:01:47;;;;;;;7.47;4.73;;;5.40;6.50;;;;;;5079723;28;20662;-59
2023/04/26 01:04:14;;;;;;;8.23;4.20;;;5.20;1.00;;;;;;5083176;28;20618;-60
2023/04/26 01:06:43;;;;;;;7.70;4.10;;;4.90;99.90;;;;;;5083044;28;20668;-59
2023/04/26 01:09:13;;;;;;;13.83;4.30;;;4.80;1.00;;;;;;5081611;28;20203;-60
2023/04/26 01:11:42;;;;;;;8.83;4.03;;;4.60;1.00;;;;;;5081194;28;20199;-59
2023/04/26 01:14:09;;;;;;;9.90;4.00;;;4.50;99.90;;;;;;5081436;28;20217;-59
2023/04/26 01:16:37;;;;;;;12.37;4.83;;;4.50;1.00;;;;;;5064346;28;20207;-65
2023/04/26 01:19:11;;;;;;;10.47;4.27;;;4.60;99.90;;;;;;5081449;28;20233;-58
2023/04/26 01:21:39;;;;;;;7.13;4.83;;;4.60;1.00;;;;;;5081087;28;20217;-58
2023/04/26 01:24:08;;;;;;;10.97;4.30;;;4.90;1.00;;;;;;5070207;28;20210;-59
2023/04/26 01:26:36;;;;;;;9.33;4.47;;;5.00;1.00;;;;;;5081026;28;21120;-59
2023/04/26 01:29:16;;;;;;;7.73;3.77;;;5.10;1.00;;;;;;5062056;28;20246;-59
2023/04/26 01:31:43;;;;;;;7.40;4.50;;;5.10;1.00;;;;;;5081581;28;20210;-59
2023/04/26 01:34:11;;;;;;;9.43;4.33;;;5.20;99.90;;;;;;5081080;28;20314;-59
2023/04/26 01:36:38;;;;;;;10.17;4.77;;;5.20;1.00;;;;;;5079732;28;20295;-59
2023/04/26 01:39:05;;;;;;;7.87;4.30;;;5.20;1.00;;;;;;5080657;28;20203;-59
2023/04/26 01:41:32;;;;;;;12.80;4.93;;;4.90;99.90;;;;;;5081269;28;20259;-59
2023/04/26 01:44:00;;;;;;;8.43;4.67;;;4.70;1.00;;;;;;5062266;28;20205;-59
2023/04/26 01:46:27;;;;;;;8.70;4.17;;;4.30;26.50;;;;;;5080159;28;20226;-58
2023/04/26 01:48:54;;;;;;;5.67;3.80;;;4.10;1.00;;;;;;5080664;28;20218;-59
2023/04/26 01:51:21;;;;;;;6.23;3.83;;;4.30;1.00;;;;;;5079251;28;20288;-59
2023/04/26 01:53:48;;;;;;;5.90;4.60;;;4.70;1.00;;;;;;5063269;28;20252;-58
2023/04/26 01:56:15;;;;;;;9.07;4.20;;;4.80;1.00;;;;;;5080485;28;20285;-59
2023/04/26 01:58:42;;;;;;;7.77;4.50;;;4.60;1.00;;;;;;5079393;28;20200;-58
2023/04/26 02:01:10;;;;;;;10.17;3.77;;;4.80;99.90;;;;;;5061845;28;20290;-59
2023/04/26 02:03:37;;;;;;;5.57;3.97;;;4.90;1.00;;;;;;5079732;28;20207;-58
2023/04/26 02:06:04;;;;;;;6.40;4.70;;;4.50;1.00;;;;;;5061051;28;20286;-58
2023/04/26 02:08:31;;;;;;;9.90;3.70;;;4.50;99.90;;;;;;5078704;28;20745;-59
2023/04/26 02:10:58;;;;;;;7.97;4.90;;;4.60;24.60;;;;;;5078889;28;20199;-59
2023/04/26 02:13:25;;;;;;;7.00;4.43;;;4.50;1.00;;;;;;5080990;28;20210;-59
2023/04/26 02:15:52;;;;;;;9.43;4.83;;;4.40;99.90;;;;;;5045932;28;20215;-59
2023/04/26 02:18:21;;;;;;;7.43;4.13;;;4.50;99.90;;;;;;5079064;28;20233;-59
2023/04/26 02:20:48;;;;;;;10.60;4.60;;;4.70;1.00;;;;;;5079531;28;20207;-59
2023/04/26 02:23:15;;;;;;;6.83;3.93;;;4.50;1.00;;;;;;5046261;28;20209;-59
2023/04/26 02:25:46;;;;;;;12.10;4.83;;;4.40;1.00;;;;;;5079185;28;20214;-61
2023/04/26 02:28:14;;;;;;;8.87;5.10;;;4.40;1.00;;;;;;5080111;28;20243;-59
2023/04/26 02:30:42;;;;;;;7.70;4.97;;;4.30;1.00;;;;;;5079034;28;20209;-59
2023/04/26 02:33:09;;;;;;;9.53;4.37;;;4.40;1.00;;;;;;5079448;28;20683;-58
2023/04/26 02:35:36;;;;;;;6.80;4.10;;;4.60;1.00;;;;;;5079688;28;20293;-58
2023/04/26 02:38:03;;;;;;;7.23;4.60;;;4.60;99.90;;;;;;5061518;28;20205;-59
2023/04/26 02:40:30;;;;;;;9.27;5.40;;;4.60;1.00;;;;;;5079660;28;20314;-58
2023/04/26 02:42:58;;;;;;;6.83;4.37;;;4.10;10.60;;;;;;5061461;28;20582;-58
2023/04/26 02:45:25;;;;;;;9.13;4.70;;;4.10;1.00;;;;;;5079320;28;20234;-58
2023/04/26 02:47:51;;;;;;;8.73;4.80;;;4.00;1.00;;;;;;5069459;28;20225;-58
2023/04/26 02:50:18;;;;;;;11.37;5.50;;;3.90;1.00;;;;;;5079486;28;20206;-58
2023/04/26 02:52:45;;;;;;;10.23;5.37;;;3.90;1.00;;;;;;5062395;28;20205;-58
2023/04/26 02:55:13;;;;;;;8.20;4.60;;;4.00;99.90;;;;;;5078351;28;20209;-59
2023/04/26 02:57:40;;;;;;;7.37;4.37;;;4.00;1.00;;;;;;5080019;28;20218;-59
2023/04/26 03:00:07;;;;;;;8.23;4.83;;;4.10;1.00;;;;;;5045333;28;20719;-58
2023/04/26 03:02:35;;;;;;;7.67;4.60;;;4.20;99.90;;;;;;5079993;28;20612;-59
2023/04/26 03:05:02;;;;;;;10.53;4.73;;;4.30;1.00;;;;;;5080344;28;20210;-58
2023/04/26 03:07:30;;;;;;;10.27;4.83;;;4.20;99.90;;;;;;5080763;28;20258;-59
2023/04/26 03:09:57;;;;;;;9.60;5.27;;;4.20;1.00;;;;;;5078748;28;20210;-58
2023/04/26 03:12:24;;;;;;;10.33;5.17;;;4.20;1.00;;;;;;5080168;28;20205;-59
2023/04/26 03:14:51;;;;;;;11.77;5.03;;;4.30;1.00;;;;;;5078721;28;20241;-59
2023/04/26 03:17:17;;;;;;;8.97;5.33;;;4.40;99.90;;;;;;5080123;28;20276;-58
2023/04/26 03:19:44;;;;;;;12.67;6.13;;;4.40;99.90;;;;;;5079110;28;20376;-59
2023/04/26 03:22:14;;;;;;;11.40;5.43;;;4.60;99.90;;;;;;5078453;28;20201;-58
2023/04/26 03:24:43;;;;;;;12.03;5.70;;;4.50;1.00;;;;;;5060919;28;20210;-58
2023/04/26 03:27:10;;;;;;;9.43;4.77;;;4.50;1.00;;;;;;5062476;28;20309;-59
2023/04/26 03:29:37;;;;;;;10.40;5.17;;;4.60;1.00;;;;;;5076100;28;20209;-59
2023/04/26 03:32:04;;;;;;;14.87;6.30;;;4.60;1.00;;;;;;5052324;28;20279;-59
2023/04/26 03:34:31;;;;;;;10.03;5.90;;;4.60;1.00;;;;;;5077816;28;20241;-62
2023/04/26 03:36:58;;;;;;;13.00;6.23;;;4.50;99.90;;;;;;5078568;28;20298;-58
2023/04/26 03:39:25;;;;;;;12.13;6.40;;;4.50;1.00;;;;;;5077143;28;20260;-59
2023/04/26 03:41:52;;;;;;;15.20;6.20;;;4.00;99.90;;;;;;5079766;28;20234;-58
2023/04/26 03:44:19;;;;;;;10.97;6.07;;;3.80;99.90;;;;;;5060674;28;20214;-59
2023/04/26 03:46:46;;;;;;;11.37;5.77;;;3.70;1.00;;;;;;5078866;28;20240;-59
2023/04/26 03:49:13;;;;;;;12.60;6.20;;;3.60;1.00;;;;;;5079345;28;20223;-58
2023/04/26 03:51:40;;;;;;;11.43;6.40;;;3.60;1.00;;;;;;5079958;28;20317;-58
2023/04/26 03:54:07;;;;;;;11.03;6.03;;;3.60;1.00;;;;;;5060763;28;20207;-59
2023/04/26 03:56:33;;;;;;;10.27;6.23;;;3.60;22.20;;;;;;5079594;28;20205;-59
2023/04/26 03:59:00;;;;;;;14.47;5.90;;;3.60;99.90;;;;;;5078487;28;20216;-59
2023/04/26 04:01:27;;;;;;;11.00;6.40;;;3.70;99.90;;;;;;5079482;28;20242;-59
2023/04/26 04:03:55;;;;;;;10.63;5.53;;;3.90;1.00;;;;;;5079718;28;20905;-60
2023/04/26 04:06:22;;;;;;;9.37;5.77;;;4.00;1.00;;;;;;5047654;28;20597;-59
2023/04/26 04:08:49;;;;;;;11.63;6.93;;;4.00;99.40;;;;;;5065966;28;20668;-59
2023/04/26 04:11:16;;;;;;;11.27;6.50;;;4.00;1.00;;;;;;5083434;28;20256;-58
2023/04/26 04:13:43;;;;;;;13.73;6.80;;;3.70;1.00;;;;;;5065598;28;20203;-59
2023/04/26 04:16:10;;;;;;;13.60;6.83;;;3.70;1.00;;;;;;5081996;28;20210;-58
2023/04/26 04:18:37;;;;;;;10.67;6.17;;;3.60;1.00;;;;;;5082667;28;20237;-59
2023/04/26 04:21:04;;;;;;;11.10;6.20;;;3.60;29.90;;;;;;5078364;28;20669;-58
2023/04/26 04:23:30;;;;;;;11.43;6.07;;;3.70;1.80;;;;;;5071935;28;20601;-58
2023/04/26 04:25:57;;;;;;;10.70;6.30;;;3.90;99.90;;;;;;5064476;28;20656;-63
2023/04/26 04:28:24;;;;;;;12.40;6.53;;;3.90;12.90;;;;;;5082826;28;20290;-61
2023/04/26 04:30:51;;;;;;;9.97;6.87;;;4.10;1.00;;;;;;5081538;28;20255;-60
2023/04/26 04:33:19;;;;;;;13.93;6.43;;;4.10;1.00;;;;;;5048096;28;20216;-58
2023/04/26 04:35:45;;;;;;;10.93;5.97;;;3.90;99.90;;;;;;5081936;28;20710;-58
2023/04/26 04:38:13;;;;;;;12.00;6.63;;;3.70;1.00;;;;;;5082085;28;20202;-59
2023/04/26 04:40:40;;;;;;;11.80;6.43;;;3.60;99.90;;;;;;5063593;28;20213;-58
2023/04/26 04:43:06;;;;;;;13.47;6.60;;;3.60;1.00;;;;;;5082583;28;20209;-59
2023/04/26 04:45:34;;;;;;;15.10;7.40;;;3.60;99.90;;;;;;5082251;28;20286;-59
2023/04/26 04:48:03;;;;;;;15.87;6.60;;;3.60;1.00;;;;;;5082302;28;20649;-59
2023/04/26 04:50:31;;;;;;;12.80;6.73;;;3.50;1.00;;;;;;5081785;28;20887;-58
2023/04/26 04:52:58;;;;;;;14.10;6.50;;;3.50;1.00;;;;;;5082235;28;20280;-59
2023/04/26 04:55:25;;;;;;;12.83;7.00;;;3.40;1.00;;;;;;5082462;28;20260;-59
2023/04/26 04:57:52;;;;;;;17.43;8.13;;;3.40;1.00;;;;;;5082576;28;21032;-66
2023/04/26 05:00:20;;;;;;;14.50;7.80;;;3.40;1.00;;;;;;5080735;28;20202;-58
2023/04/26 05:02:47;;;;;;;20.23;8.83;;;3.50;1.00;;;;;;5082068;28;20273;-58
2023/04/26 05:05:14;;;;;;;17.77;7.87;;;3.70;1.00;;;;;;5064907;28;20205;-58
2023/04/26 05:07:41;;;;;;;11.13;7.23;;;3.60;1.00;;;;;;5081175;28;20215;-59
2023/04/26 05:10:08;;;;;;;13.13;6.90;;;3.70;1.00;;;;;;5082537;28;20264;-59
2023/04/26 05:12:35;;;;;;;15.87;7.83;;;3.70;1.00;;;;;;5063952;28;20195;-58
2023/04/26 05:15:03;;;;;;;12.77;6.50;;;4.00;1.00;;;;;;5080325;28;20199;-58
2023/04/26 05:17:32;;;;;;;16.63;6.73;;;4.00;1.00;;;;;;5075902;28;20212;-59
2023/04/26 05:20:01;;;;;;;14.57;6.57;;;4.10;1.00;;;;;;5081428;28;20338;-59
2023/04/26 05:22:28;;;;;;;12.77;6.77;;;4.00;99.90;;;;;;5064413;28;20721;-58
2023/04/26 05:24:55;;;;;;;12.60;7.03;;;4.00;99.90;;;;;;5061949;28;20207;-59
2023/04/26 05:27:22;;;;;;;10.03;6.33;;;3.90;99.90;;;;;;5046436;28;20668;-59
2023/04/26 05:29:49;;;;;;;13.40;7.17;;;3.90;1.00;;;;;;5079829;28;20227;-59
2023/04/26 05:32:16;;;;;;;11.87;6.07;;;4.00;1.00;;;;;;5063373;28;20614;-61
2023/04/26 05:34:42;;;;;;;12.70;5.67;;;4.30;1.00;;;;;;5080631;28;20536;-58
2023/04/26 05:37:09;;;;;;;10.13;6.60;;;4.50;99.90;;;;;;5063099;28;20199;-59
2023/04/26 05:39:36;;;;;;;12.30;6.53;;;4.60;1.00;;;;;;5080733;28;20229;-59
2023/04/26 05:42:03;;;;;;;13.43;7.10;;;4.80;1.00;;;;;;5080954;28;20226;-59
2023/04/26 05:44:30;;;;;;;11.47;6.03;;;4.90;1.00;;;;;;5081416;28;20340;-59
2023/04/26 05:46:57;;;;;;;14.13;6.27;;;4.80;1.00;;;;;;5081257;28;20234;-59
2023/04/26 05:49:23;;;;;;;10.23;5.83;;;4.70;1.00;;;;;;5081217;28;20297;-59
2023/04/26 05:51:50;;;;;;;9.97;5.87;;;4.70;1.00;;;;;;5080706;28;20244;-63
2023/04/26 05:54:17;;;;;;;8.93;5.80;;;4.80;1.00;;;;;;5080739;28;20286;-61
2023/04/26 05:56:44;;;;;;;12.30;6.37;;;4.90;1.00;;;;;;5078258;28;20286;-59
2023/04/26 05:59:12;;;;;;;11.33;6.67;;;4.90;1.00;;;;;;5070057;28;20326;-59
2023/04/26 06:01:39;;;;;;;16.10;6.30;;;4.90;1.00;;;;;;5051137;28;20714;-59
2023/04/26 06:04:06;;;;;;;10.13;6.37;;;4.90;1.00;;;;;;5066241;28;20313;-63
2023/04/26 06:06:34;;;;;;;15.70;6.30;;;5.10;5.60;;;;;;5059680;28;20200;-59
2023/04/26 06:09:01;;;;;;;9.97;5.50;;;5.10;99.90;;;;;;5060290;28;20288;-59
2023/04/26 06:11:28;;;;;;;10.20;6.50;;;5.20;1.00;;;;;;5061482;28;20278;-59
2023/04/26 06:13:55;;;;;;;11.67;6.03;;;5.50;99.90;;;;;;5061621;28;20228;-60
2023/04/26 06:16:22;;;;;;;8.80;5.40;;;5.90;1.00;;;;;;5058717;28;20196;-60
2023/04/26 06:18:49;;;;;;;11.87;6.00;;;6.00;99.90;;;;;;5054802;28;20223;-59
2023/04/26 06:21:16;;;;;;;9.37;5.30;;;5.80;99.90;;;;;;5059531;28;20291;-60
2023/04/26 06:23:43;;;;;;;10.30;5.70;;;5.80;1.00;;;;;;5058541;28;20296;-60
2023/04/26 06:26:10;;;;;;;7.80;5.67;;;5.80;1.00;;;;;;5058527;28;20218;-59
2023/04/26 06:28:37;;;;;;;12.43;5.57;;;5.90;99.90;;;;;;5059194;28;20323;-59
2023/04/26 06:31:06;;;;;;;13.97;5.97;;;5.90;99.90;;;;;;5058668;28;20663;-59
2023/04/26 06:33:33;;;;;;;8.87;5.50;;;5.90;1.00;;;;;;5059629;28;20207;-59
2023/04/26 06:36:00;;;;;;;8.90;5.20;;;6.00;15.30;;;;;;5059081;28;20719;-60
2023/04/26 06:38:27;;;;;;;10.73;5.93;;;6.00;99.90;;;;;;5060175;28;20957;-62
2023/04/26 06:40:54;;;;;;;8.03;4.57;;;6.10;99.90;;;;;;5059388;28;20243;-60
2023/04/26 06:43:21;;;;;;;10.23;5.00;;;6.30;1.00;;;;;;5060342;28;20233;-60
2023/04/26 06:45:48;;;;;;;8.40;4.33;;;6.30;1.00;;;;;;5060029;28;20200;-60
2023/04/26 06:48:15;;;;;;;10.33;4.50;;;6.30;1.00;;;;;;5058229;28;20217;-60
2023/04/26 06:50:42;;;;;;;7.37;4.20;;;6.30;1.00;;;;;;5058895;28;20251;-60
2023/04/26 06:53:09;;;;;;;7.23;4.33;;;6.60;1.00;;;;;;5058247;28;20211;-60
2023/04/26 06:55:36;;;;;;;6.60;4.53;;;6.70;99.90;;;;;;5060107;28;20673;-60
2023/04/26 06:58:02;;;;;;;8.50;4.33;;;6.70;1.00;;;;;;5059383;28;20212;-60
2023/04/26 07:00:30;;;;;;;10.33;4.40;;;6.80;1.00;;;;;;5059762;28;20362;-60
2023/04/26 07:02:56;;;;;;;7.10;4.87;;;6.90;1.00;;;;;;5076486;28;20246;-60
2023/04/26 07:05:23;;;;;;;8.47;4.67;;;6.80;1.00;;;;;;5080127;28;20282;-60
2023/04/26 07:07:50;;;;;;;4.93;3.80;;;6.90;1.00;;;;;;5078955;28;20226;-59
2023/04/26 07:10:17;;;;;;;8.03;4.60;;;6.90;1.00;;;;;;5079293;28;20763;-60
2023/04/26 07:12:44;;;;;;;9.70;4.57;;;7.00;1.00;;;;;;5061819;28;20236;-60
2023/04/26 07:15:11;;;;;;;9.20;4.00;;;7.10;1.00;;;;;;5078677;28;21111;-60
2023/04/26 07:17:38;;;;;;;6.33;3.90;;;7.40;1.00;;;;;;5074733;28;20205;-60
2023/04/26 07:20:06;;;;;;;9.10;4.70;;;7.40;99.90;;;;;;5060070;28;20202;-60
2023/04/26 07:22:33;;;;;;;6.70;3.60;;;7.70;99.90;;;;;;5044467;28;20202;-60
2023/04/26 07:24:59;;;;;;;9.30;4.20;;;8.00;1.00;;;;;;5060038;28;20197;-60
2023/04/26 07:27:26;;;;;;;7.10;3.73;;;7.70;1.00;;;;;;5079295;28;20201;-60
2023/04/26 07:29:55;;;;;;;7.70;3.73;;;7.80;1.00;;;;;;5043546;28;21071;-60
2023/04/26 07:32:22;;;;;;;7.13;3.80;;;7.90;1.00;;;;;;5078842;28;20201;-61
2023/04/26 07:34:49;;;;;;;7.43;4.00;;;7.70;1.00;;;;;;5079172;28;20277;-60
2023/04/26 07:37:16;;;;;;;6.23;2.80;;;7.70;1.00;;;;;;5079426;28;20249;-60
2023/04/26 07:39:42;;;;;;;7.10;2.70;;;7.70;1.00;;;;;;5079252;28;20215;-67
2023/04/26 07:42:09;;;;;;;9.90;2.70;;;7.90;1.00;;;;;;5075839;28;20761;-60
2023/04/26 07:44:36;;;;;;;6.10;2.63;;;8.40;1.00;;;;;;5079023;28;20207;-60
2023/04/26 07:47:03;;;;;;;4.20;2.20;;;8.70;1.00;;;;;;5062063;28;20726;-60
2023/04/26 07:49:30;;;;;;;5.93;2.93;;;8.70;1.00;;;;;;5062185;28;20274;-60
2023/04/26 07:52:00;;;;;;;9.30;2.50;;;8.70;1.00;;;;;;5077072;28;20602;-60
2023/04/26 07:54:27;;;;;;;12.63;2.53;;;8.40;1.00;;;;;;5079576;28;20264;-60
2023/04/26 07:56:54;;;;;;;2.90;2.20;;;8.50;1.00;;;;;;5077538;28;20208;-60
2023/04/26 07:59:22;;;;;;;6.63;2.57;;;8.90;1.00;;;;;;5079549;28;20681;-60
2023/04/26 08:01:49;;;;;;;3.27;1.70;;;8.50;1.00;;;;;;5077747;28;20246;-60
2023/04/26 08:04:17;;;;;;;5.93;1.90;;;8.50;1.00;;;;;;5062236;28;20207;-60
2023/04/26 08:06:47;;;;;;;3.30;1.93;;;8.40;1.00;;;;;;5063192;28;20246;-60
2023/04/26 08:09:14;;;;;;;5.87;1.77;;;8.70;1.00;;;;;;5078495;28;20220;-60
2023/04/26 08:11:41;;;;;;;4.73;1.60;;;8.90;1.00;;;;;;5061336;28;20203;-60
2023/04/26 08:14:08;;;;;;;5.50;1.60;;;9.40;1.00;;;;;;5078483;28;20197;-60
2023/04/26 08:16:34;;;;;;;4.00;1.87;;;9.40;1.00;;;;;;5079499;28;20705;-60
2023/04/26 08:19:02;;;;;;;4.33;1.90;;;9.60;1.00;;;;;;5061014;28;20233;-60
2023/04/26 08:21:29;;;;;;;4.70;1.70;;;9.70;1.00;;;;;;5061707;28;20229;-60
2023/04/26 08:23:56;;;;;;;2.13;1.17;;;9.40;1.00;;;;;;5077586;28;20249;-58
2023/04/26 08:26:23;;;;;;;4.73;1.10;;;9.30;1.00;;;;;;5076999;28;21126;-58
2023/04/26 08:28:50;;;;;;;3.90;0.97;;;8.80;1.00;;;;;;5073140;28;20261;-61
2023/04/26 08:31:17;;;;;;;6.80;1.17;;;8.70;1.00;;;;;;5077449;28;20248;-58
2023/04/26 08:33:44;;;;;;;3.87;1.17;;;9.00;1.00;;;;;;5073900;28;20281;-58
2023/04/26 08:36:11;;;;;;;4.43;1.17;;;9.00;1.00;;;;;;5079030;28;20263;-58
2023/04/26 08:38:38;;;;;;;5.70;1.13;;;8.80;1.00;;;;;;5059950;28;20296;-58
2023/04/26 08:41:08;;;;;;;3.37;0.70;;;8.90;1.00;;;;;;5078494;28;20245;-58
2023/04/26 08:43:37;;;;;;;2.70;1.00;;;9.20;1.00;;;;;;5078348;28;20256;-58
2023/04/26 08:46:07;;;;;;;3.57;1.23;;;9.20;1.00;;;;;;5078403;28;20620;-58
2023/04/26 08:48:36;;;;;;;4.87;1.40;;;9.20;1.00;;;;;;5078442;28;20226;-58
2023/04/26 08:51:05;;;;;;;5.23;1.03;;;9.60;1.00;;;;;;5078045;28;20208;-61
2023/04/26 08:53:34;;;;;;;2.80;1.10;;;9.50;1.00;;;;;;5080546;28;20612;-58
2023/04/26 08:56:03;;;;;;;3.27;1.10;;;9.00;1.00;;;;;;5070841;28;20238;-59
2023/04/26 08:58:31;;;;;;;4.93;1.60;;;8.90;1.00;;;;;;5081993;28;20234;-58
2023/04/26 09:01:00;;;;;;;2.50;1.00;;;8.90;1.00;;;;;;5081689;28;20676;-58
2023/04/26 09:03:27;;;;;;;3.90;1.10;;;9.00;1.00;;;;;;5081516;28;20241;-58
2023/04/26 09:05:54;;;;;;;1.83;1.30;;;9.20;1.00;;;;;;5082106;28;20270;-58
2023/04/26 09:08:22;;;;;;;2.50;1.07;;;9.20;1.00;;;;;;5064191;28;20226;-58
2023/04/26 09:10:48;;;;;;;3.30;1.57;;;9.30;1.00;;;;;;5063433;28;20276;-61
2023/04/26 09:13:15;;;;;;;2.80;1.43;;;9.60;1.00;;;;;;5080870;28;20566;-61
2023/04/26 09:15:42;;;;;;;2.83;0.90;;;9.70;1.00;;;;;;5080459;28;20575;-60
2023/04/26 09:18:20;;;;;;;2.67;1.17;;;9.70;1.00;;;;;;5046827;28;20257;-60
2023/04/26 09:21:07;;;;;;;2.90;1.20;;;10.30;1.00;;;;;;5080759;28;20211;-60
2023/04/26 09:23:34;;;;;;;3.13;1.30;;;10.30;1.00;;;;;;5080567;28;20193;-60
2023/04/26 09:26:17;;;;;;;3.63;1.47;;;10.60;1.00;;;;;;5062967;28;20285;-60
2023/04/26 09:28:45;;;;;;;3.60;1.40;;;10.90;1.00;;;;;;5081104;28;20800;-60
2023/04/26 09:31:35;;;;;;;4.97;1.37;;;10.80;1.00;;;;;;5080356;28;20693;-60
2023/04/26 09:34:02;;;;;;;3.73;1.40;;;10.90;1.00;;;;;;5077614;28;20210;-60
2023/04/26 09:36:29;;;;;;;6.67;1.87;;;11.00;1.00;;;;;;5081327;28;20201;-60
2023/04/26 09:38:56;;;;;;;8.03;1.67;;;11.30;1.00;;;;;;5080927;28;20255;-60
2023/04/26 09:41:23;;;;;;;3.77;1.70;;;11.40;1.00;;;;;;5081134;28;20213;-60
2023/04/26 09:43:51;;;;;;;3.50;1.37;;;10.90;1.00;;;;;;5062624;28;20574;-60
2023/04/26 09:46:25;;;;;;;1.33;1.10;;;10.90;1.00;;;;;;5080981;28;20907;-60
2023/04/26 09:49:02;;;;;;;5.27;1.40;;;11.00;1.00;;;;;;5081966;28;20715;-59
2023/04/26 09:51:29;;;;;;;3.50;1.30;;;10.90;1.00;;;;;;5081259;28;20201;-63
2023/04/26 09:53:56;;;;;;;6.13;1.80;;;10.30;1.00;;;;;;5081070;28;20346;-60
2023/04/26 09:56:23;;;;;;;3.10;1.30;;;10.10;1.00;;;;;;5080882;28;20202;-59
2023/04/26 09:58:59;;;;;;;3.13;1.33;;;10.30;1.00;;;;;;5063867;28;20215;-59
2023/04/26 10:01:28;;;;;;;5.00;1.80;;;10.20;1.00;;;;;;5081768;28;20209;-59
2023/04/26 10:03:56;;;;;;;5.70;1.47;;;10.10;1.00;;;;;;5081472;28;20209;-59
2023/04/26 10:06:24;;;;;;;5.00;1.50;;;10.00;1.00;;;;;;5081114;28;20695;-59
2023/04/26 10:08:50;;;;;;;3.53;1.13;;;10.00;1.00;;;;;;5063212;28;20212;-59
2023/04/26 10:11:19;;;;;;;6.63;1.53;;;10.10;1.00;;;;;;5081494;28;20198;-59
2023/04/26 10:13:48;;;;;;;3.83;1.33;;;10.00;1.00;;;;;;5081024;28;20387;-59
2023/04/26 10:16:15;;;;;;;2.73;1.30;;;9.90;1.00;;;;;;5080405;28;20622;-59
2023/04/26 10:18:42;;;;;;;1.73;1.30;;;9.80;1.00;;;;;;5080521;28;20274;-62
2023/04/26 10:21:21;;;;;;;1.80;1.37;;;10.00;1.00;;;;;;5078988;28;20248;-59
2023/04/26 10:23:49;;;;;;;3.13;1.17;;;9.90;1.00;;;;;;5079982;28;20243;-59
2023/04/26 10:26:55;;;;;;;4.67;1.53;;;10.00;1.00;;;;;;5062557;28;20205;-59
2023/04/26 10:29:24;;;;;;;4.43;1.70;;;9.80;1.00;;;;;;5068291;28;20213;-59
2023/04/26 10:32:08;;;;;;;4.47;1.60;;;9.50;1.00;;;;;;5062165;28;20208;-59
2023/04/26 10:34:36;;;;;;;6.37;2.17;;;9.40;1.00;;;;;;5080887;28;20724;-59
2023/04/26 10:37:14;;;;;;;4.90;1.87;;;9.30;1.00;;;;;;5079823;28;20205;-59
2023/04/26 10:39:45;;;;;;;4.57;2.00;;;9.20;1.00;;;;;;5062199;28;20331;-63
2023/04/26 10:42:25;;;;;;;8.13;2.27;;;9.30;1.00;;;;;;5081269;28;20211;-59
2023/04/26 10:44:57;;;;;;;3.93;1.40;;;9.40;1.00;;;;;;5079127;28;20209;-59
2023/04/26 10:47:37;;;;;;;6.53;1.87;;;9.30;1.00;;;;;;5079892;28;20301;-59
2023/04/26 10:50:09;;;;;;;3.30;1.97;;;9.30;1.00;;;;;;5079084;28;20274;-59
2023/04/26 10:52:38;;;;;;;7.43;2.23;;;9.50;1.00;;;;;;5068954;28;20292;-59
2023/04/26 10:55:06;;;;;;;4.43;2.60;;;9.50;1.00;;;;;;5079539;28;20571;-59
2023/04/26 10:57:51;;;;;;;2.77;2.20;;;9.50;1.00;;;;;;5063015;28;20792;-59
2023/04/26 11:00:27;;;;;;;6.53;2.23;;;9.60;1.00;;;;;;5078842;28;20230;-59
2023/04/26 11:02:58;;;;;;;5.40;2.70;;;9.70;1.00;;;;;;5079880;28;20234;-59
2023/04/26 11:05:37;;;;;;;7.17;3.13;;;9.70;1.00;;;;;;5080172;28;20593;-59
2023/04/26 11:08:15;;;;;;;7.27;2.20;;;9.90;1.00;;;;;;5068033;28;20238;-59
2023/04/26 11:10:45;;;;;;;6.80;2.50;;;9.60;1.00;;;;;;5079205;28;20264;-59
2023/04/26 11:13:11;;;;;;;6.07;2.37;;;9.50;1.00;;;;;;5080080;28;20281;-59
2023/04/26 11:15:38;;;;;;;6.30;2.33;;;9.50;1.00;;;;;;5060130;28;20359;-59
2023/04/26 11:18:05;;;;;;;6.23;2.43;;;10.00;1.00;;;;;;5079696;28;20226;-59
2023/04/26 11:20:33;;;;;;;5.87;2.63;;;10.40;1.00;;;;;;5067924;28;20543;-59
2023/04/26 11:23:00;;;;;;;7.87;2.57;;;10.00;1.00;;;;;;5077593;28;20632;-59
2023/04/26 11:25:28;;;;;;;6.13;2.77;;;9.90;1.00;;;;;;5079638;28;20292;-59
2023/04/26 11:28:01;;;;;;;6.13;2.70;;;10.40;1.00;;;;;;5079642;28;20206;-59
2023/04/26 11:30:30;;;;;;;6.47;2.67;;;10.50;1.00;;;;;;5073748;28;20300;-62
2023/04/26 11:32:58;;;;;;;4.83;2.67;;;10.80;1.00;;;;;;5068529;28;20203;-59
2023/04/26 11:35:28;;;;;;;5.13;2.93;;;10.90;1.00;;;;;;5074077;28;20207;-59
2023/04/26 11:38:01;;;;;;;4.23;2.97;;;10.70;1.00;;;;;;5078673;28;20241;-59
2023/04/26 11:40:32;;;;;;;3.90;2.80;;;10.90;1.00;;;;;;5057480;28;20259;-59
2023/04/26 11:43:01;;;;;;;7.10;3.00;;;11.00;1.00;;;;;;5061223;28;20212;-60
2023/04/26 11:45:30;;;;;;;7.17;3.00;;;10.90;1.00;;;;;;5078538;28;20203;-59
2023/04/26 11:47:57;;;;;;;5.30;3.30;;;10.90;1.00;;;;;;5079420;28;20649;-59
2023/04/26 11:50:25;;;;;;;5.97;2.83;;;10.90;1.00;;;;;;5078820;28;20228;-59
2023/04/26 11:52:57;;;;;;;6.40;3.00;;;10.80;1.00;;;;;;5078949;28;20226;-59
2023/04/26 11:55:26;;;;;;;6.27;2.57;;;10.90;1.00;;;;;;5069107;28;20240;-59
2023/04/26 11:57:53;;;;;;;3.43;2.47;;;10.80;1.00;;;;;;5062353;28;20944;-59
2023/04/26 12:00:20;;;;;;;3.77;2.07;;;10.90;1.00;;;;;;5079197;28;20238;-59
2023/04/26 12:02:48;;;;;;;4.50;2.60;;;10.60;1.00;;;;;;5067976;28;20738;-59
2023/04/26 12:05:31;;;;;;;7.23;2.67;;;10.70;1.00;;;;;;5062605;28;20213;-59
2023/04/26 12:07:59;;;;;;;5.03;2.40;;;10.70;1.00;;;;;;5079667;28;20636;-60
2023/04/26 12:10:32;;;;;;;5.13;2.00;;;10.90;1.00;;;;;;5078661;28;20211;-59
2023/04/26 12:13:00;;;;;;;7.07;2.50;;;11.00;1.00;;;;;;5080142;28;20214;-59
2023/04/26 12:15:31;;;;;;;6.03;2.63;;;11.00;1.00;;;;;;5078188;28;20204;-60
2023/04/26 12:18:07;;;;;;;6.63;3.13;;;10.80;1.00;;;;;;5078716;28;20226;-59
2023/04/26 12:20:36;;;;;;;5.93;3.10;;;11.00;1.00;;;;;;5073846;28;20344;-59
2023/04/26 12:23:07;;;;;;;2.67;1.67;;;11.00;1.00;;;;;;5059621;28;20203;-59
2023/04/26 12:25:36;;;;;;;5.23;2.20;;;10.80;1.00;;;;;;5078739;28;20949;-59
2023/04/26 12:28:07;;;;;;;6.67;2.60;;;11.00;1.00;;;;;;5083234;28;20237;-59
2023/04/26 12:30:34;;;;;;;10.60;2.60;;;11.10;1.00;;;;;;5081687;28;20216;-59
2023/04/26 12:33:01;;;;;;;6.57;2.70;;;10.90;1.00;;;;;;5082513;28;20212;-60
2023/04/26 12:35:42;;;;;;;4.67;1.93;;;11.00;1.00;;;;;;5081860;28;20195;-60
2023/04/26 12:38:10;;;;;;;5.13;2.13;;;11.30;1.00;;;;;;5082202;28;20539;-60
2023/04/26 12:40:38;;;;;;;8.10;2.17;;;11.40;1.00;;;;;;5080027;28;20219;-60
2023/04/26 12:43:05;;;;;;;3.57;1.97;;;11.10;1.00;;;;;;5081856;28;20242;-60
2023/04/26 12:45:32;;;;;;;4.93;2.13;;;11.10;1.00;;;;;;5046727;28;20272;-58
2023/04/26 12:47:59;;;;;;;5.67;2.47;;;11.20;1.00;;;;;;5082986;28;20258;-58
2023/04/26 12:50:26;;;;;;;3.73;2.57;;;11.30;1.00;;;;;;5078905;28;20784;-58
2023/04/26 12:52:53;;;;;;;5.53;2.57;;;11.00;1.00;;;;;;5064330;28;20734;-58
2023/04/26 12:55:20;;;;;;;4.30;2.43;;;11.10;1.00;;;;;;5081312;28;20242;-63
2023/04/26 12:57:47;;;;;;;5.70;2.57;;;11.20;1.00;;;;;;5082125;28;20203;-61
2023/04/26 13:00:16;;;;;;;5.37;1.93;;;11.30;1.00;;;;;;5080723;28;20210;-61
2023/04/26 13:02:43;;;;;;;3.53;2.20;;;11.40;1.00;;;;;;5064664;28;20231;-58
2023/04/26 13:05:11;;;;;;;7.33;2.37;;;11.30;1.00;;;;;;5082266;28;20212;-59
2023/04/26 13:07:41;;;;;;;4.70;2.70;;;11.30;1.00;;;;;;5081003;28;20587;-59